sensor_id;sensor_type;location;lat;lon;timestamp;temperature;humidity
21646;DHT22;10984;45.712;4.800;2023-05-21T00:00:14;14.90;99.90
21646;DHT22;10984;45.712;4.800;2023-05-21T00:02:40;14.90;99.90
21646;DHT22;10984;45.712;4.800;2023-05-21T00:05:06;14.90;99.90
21646;DHT22;10984;45.712;4.800;2023-05-21T00:07:34;14.90;99.90
21646;DHT22;10984;45.712;4.800;2023-05-21T00:10:00;14.90;99.90
21646;DHT22;10984;45.712;4.800;2023-05-21T00:12:26;14.90;99.90
21646;DHT22;10984;45.712;4.800;2023-05-21T00:14:52;14.90;99.90
21646;DHT22;10984;45.712;4.800;2023-05-21T00:17:17;14.80;99.90
21646;DHT22;10984;45.712;4.800;2023-05-21T00:19:43;14.80;99.90
21646;DHT22;10984;45.712;4.800;2023-05-21T00:22:09;14.90;99.90
21646;DHT22;10984;45.712;4.800;2023-05-21T00:24:34;14.80;99.90
21646;DHT22;10984;45.712;4.800;2023-05-21T00:27:00;14.70;99.90
21646;DHT22;10984;45.712;4.800;2023-05-21T00:29:26;14.70;99.90
21646;DHT22;10984;45.712;4.800;2023-05-21T00:31:52;14.70;99.90
21646;DHT22;10984;45.712;4.800;2023-05-21T00:34:18;14.70;99.90
21646;DHT22;10984;45.712;4.800;2023-05-21T00:36:44;14.70;99.90
21646;DHT22;10984;45.712;4.800;2023-05-21T00:39:11;14.70;99.90
21646;DHT22;10984;45.712;4.800;2023-05-21T00:41:37;14.70;99.90
21646;DHT22;10984;45.712;4.800;2023-05-21T00:44:05;14.70;99.90
21646;DHT22;10984;45.712;4.800;2023-05-21T00:46:31;14.70;99.90
21646;DHT22;10984;45.712;4.800;2023-05-21T00:48:57;14.70;99.90
21646;DHT22;10984;45.712;4.800;2023-05-21T00:51:23;14.70;99.90
21646;DHT22;10984;45.712;4.800;2023-05-21T00:53:51;14.70;99.90
21646;DHT22;10984;45.712;4.800;2023-05-21T00:56:19;14.70;99.90
21646;DHT22;10984;45.712;4.800;2023-05-21T00:58:46;14.60;99.90
21646;DHT22;10984;45.712;4.800;2023-05-21T01:01:12;14.60;99.90
21646;DHT22;10984;45.712;4.800;2023-05-21T01:03:39;14.60;99.90
21646;DHT22;10984;45.712;4.800;2023-05-21T01:06:06;14.60;99.90
21646;DHT22;10984;45.712;4.800;2023-05-21T01:08:32;14.50;99.90
21646;DHT22;10984;45.712;4.800;2023-05-21T01:11:17;14.60;99.90
21646;DHT22;10984;45.712;4.800;2023-05-21T01:13:44;14.60;99.90
21646;DHT22;10984;45.712;4.800;2023-05-21T01:16:11;14.50;99.90
21646;DHT22;10984;45.712;4.800;2023-05-21T01:18:38;14.50;99.90
21646;DHT22;10984;45.712;4.800;2023-05-21T01:21:04;14.40;99.90
21646;DHT22;10984;45.712;4.800;2023-05-21T01:23:32;14.50;99.90
21646;DHT22;10984;45.712;4.800;2023-05-21T01:25:58;14.50;99.90
21646;DHT22;10984;45.712;4.800;2023-05-21T01:28:23;14.40;99.90
21646;DHT22;10984;45.712;4.800;2023-05-21T01:30:49;14.40;99.90
21646;DHT22;10984;45.712;4.800;2023-05-21T01:33:37;14.40;99.90
21646;DHT22;10984;45.712;4.800;2023-05-21T01:36:24;14.50;99.90
21646;DHT22;10984;45.712;4.800;2023-05-21T01:41:55;14.50;99.90
21646;DHT22;10984;45.712;4.800;2023-05-21T01:44:22;14.50;99.90
21646;DHT22;10984;45.712;4.800;2023-05-21T01:46:52;14.50;99.90
21646;DHT22;10984;45.712;4.800;2023-05-21T01:49:18;14.40;99.90
21646;DHT22;10984;45.712;4.800;2023-05-21T01:51:45;14.40;99.90
21646;DHT22;10984;45.712;4.800;2023-05-21T01:54:11;14.40;99.90
21646;DHT22;10984;45.712;4.800;2023-05-21T01:56:36;14.40;99.90
21646;DHT22;10984;45.712;4.800;2023-05-21T01:59:02;14.30;99.90
21646;DHT22;10984;45.712;4.800;2023-05-21T02:01:28;14.30;99.90
21646;DHT22;10984;45.712;4.800;2023-05-21T02:04:12;14.20;99.90
21646;DHT22;10984;45.712;4.800;2023-05-21T02:06:37;14.20;99.90
21646;DHT22;10984;45.712;4.800;2023-05-21T02:09:04;14.10;99.90
21646;DHT22;10984;45.712;4.800;2023-05-21T02:11:29;14.10;99.90
21646;DHT22;10984;45.712;4.800;2023-05-21T02:13:56;14.00;99.90
21646;DHT22;10984;45.712;4.800;2023-05-21T02:16:21;14.00;99.90
21646;DHT22;10984;45.712;4.800;2023-05-21T02:18:47;14.10;99.90
21646;DHT22;10984;45.712;4.800;2023-05-21T02:21:16;14.00;99.90
21646;DHT22;10984;45.712;4.800;2023-05-21T02:23:41;14.00;99.90
21646;DHT22;10984;45.712;4.800;2023-05-21T02:26:07;14.00;99.90
21646;DHT22;10984;45.712;4.800;2023-05-21T02:28:33;14.00;99.90
21646;DHT22;10984;45.712;4.800;2023-05-21T02:31:00;14.00;99.90
21646;DHT22;10984;45.712;4.800;2023-05-21T02:33:26;13.90;99.90
21646;DHT22;10984;45.712;4.800;2023-05-21T02:35:51;13.90;99.90
21646;DHT22;10984;45.712;4.800;2023-05-21T02:38:17;13.90;99.90
21646;DHT22;10984;45.712;4.800;2023-05-21T02:40:46;13.80;99.90
21646;DHT22;10984;45.712;4.800;2023-05-21T02:43:12;13.80;99.90
21646;DHT22;10984;45.712;4.800;2023-05-21T02:45:38;13.90;99.90
21646;DHT22;10984;45.712;4.800;2023-05-21T02:48:04;13.80;99.90
21646;DHT22;10984;45.712;4.800;2023-05-21T02:50:29;13.70;99.90
21646;DHT22;10984;45.712;4.800;2023-05-21T02:52:55;13.80;99.90
21646;DHT22;10984;45.712;4.800;2023-05-21T02:55:21;13.80;99.90
21646;DHT22;10984;45.712;4.800;2023-05-21T02:57:47;13.70;99.90
21646;DHT22;10984;45.712;4.800;2023-05-21T03:00:13;13.70;99.90
21646;DHT22;10984;45.712;4.800;2023-05-21T03:02:39;13.70;99.90
21646;DHT22;10984;45.712;4.800;2023-05-21T03:05:05;13.70;99.90
21646;DHT22;10984;45.712;4.800;2023-05-21T03:07:31;13.80;99.90
21646;DHT22;10984;45.712;4.800;2023-05-21T03:09:56;13.70;99.90
21646;DHT22;10984;45.712;4.800;2023-05-21T03:12:22;13.60;99.90
21646;DHT22;10984;45.712;4.800;2023-05-21T03:14:48;13.60;99.90
21646;DHT22;10984;45.712;4.800;2023-05-21T03:17:15;13.70;99.90
21646;DHT22;10984;45.712;4.800;2023-05-21T03:19:42;13.70;99.90
21646;DHT22;10984;45.712;4.800;2023-05-21T03:22:08;13.70;99.90
21646;DHT22;10984;45.712;4.800;2023-05-21T03:24:34;13.70;99.90
21646;DHT22;10984;45.712;4.800;2023-05-21T03:27:01;13.70;99.90
21646;DHT22;10984;45.712;4.800;2023-05-21T03:29:27;13.70;99.90
21646;DHT22;10984;45.712;4.800;2023-05-21T03:31:53;13.70;99.90
21646;DHT22;10984;45.712;4.800;2023-05-21T03:34:20;13.60;99.90
21646;DHT22;10984;45.712;4.800;2023-05-21T03:36:46;13.60;99.90
21646;DHT22;10984;45.712;4.800;2023-05-21T03:39:11;13.60;99.90
21646;DHT22;10984;45.712;4.800;2023-05-21T03:41:38;13.60;99.90
21646;DHT22;10984;45.712;4.800;2023-05-21T03:44:03;13.60;99.90
21646;DHT22;10984;45.712;4.800;2023-05-21T03:46:29;13.60;99.90
21646;DHT22;10984;45.712;4.800;2023-05-21T03:48:55;13.60;99.90
21646;DHT22;10984;45.712;4.800;2023-05-21T03:51:22;13.70;99.90
21646;DHT22;10984;45.712;4.800;2023-05-21T03:53:49;13.70;99.90
21646;DHT22;10984;45.712;4.800;2023-05-21T03:56:15;13.80;99.90
21646;DHT22;10984;45.712;4.800;2023-05-21T03:58:41;13.80;99.90
21646;DHT22;10984;45.712;4.800;2023-05-21T04:01:07;13.70;99.90
21646;DHT22;10984;45.712;4.800;2023-05-21T04:03:34;13.70;99.90
21646;DHT22;10984;45.712;4.800;2023-05-21T04:06:03;13.60;99.90
21646;DHT22;10984;45.712;4.800;2023-05-21T04:08:29;13.50;99.90
21646;DHT22;10984;45.712;4.800;2023-05-21T04:10:55;13.50;99.90
21646;DHT22;10984;45.712;4.800;2023-05-21T04:13:21;13.50;99.90
21646;DHT22;10984;45.712;4.800;2023-05-21T04:15:46;13.50;99.90
21646;DHT22;10984;45.712;4.800;2023-05-21T04:18:13;13.40;99.90
21646;DHT22;10984;45.712;4.800;2023-05-21T04:20:40;13.50;99.90
21646;DHT22;10984;45.712;4.800;2023-05-21T04:23:07;13.50;99.90
21646;DHT22;10984;45.712;4.800;2023-05-21T04:25:33;13.50;99.90
21646;DHT22;10984;45.712;4.800;2023-05-21T04:27:58;13.60;99.90
21646;DHT22;10984;45.712;4.800;2023-05-21T04:30:24;13.50;99.90
21646;DHT22;10984;45.712;4.800;2023-05-21T04:32:50;13.60;99.90
21646;DHT22;10984;45.712;4.800;2023-05-21T04:35:17;13.60;99.90
21646;DHT22;10984;45.712;4.800;2023-05-21T04:37:42;13.70;99.90
21646;DHT22;10984;45.712;4.800;2023-05-21T04:40:11;13.70;99.90
21646;DHT22;10984;45.712;4.800;2023-05-21T04:45:26;13.70;99.90
21646;DHT22;10984;45.712;4.800;2023-05-21T04:47:53;13.60;99.90
21646;DHT22;10984;45.712;4.800;2023-05-21T04:50:19;13.60;99.90
21646;DHT22;10984;45.712;4.800;2023-05-21T04:52:44;13.70;99.90
21646;DHT22;10984;45.712;4.800;2023-05-21T04:55:10;13.70;99.90
21646;DHT22;10984;45.712;4.800;2023-05-21T04:57:36;13.80;99.90
21646;DHT22;10984;45.712;4.800;2023-05-21T05:00:02;13.90;99.90
21646;DHT22;10984;45.712;4.800;2023-05-21T05:02:30;14.00;99.90
21646;DHT22;10984;45.712;4.800;2023-05-21T05:04:56;14.00;99.90
21646;DHT22;10984;45.712;4.800;2023-05-21T05:07:22;14.00;99.90
21646;DHT22;10984;45.712;4.800;2023-05-21T05:09:47;14.00;99.90
21646;DHT22;10984;45.712;4.800;2023-05-21T05:12:13;14.10;99.90
21646;DHT22;10984;45.712;4.800;2023-05-21T05:14:38;14.10;99.90
21646;DHT22;10984;45.712;4.800;2023-05-21T05:17:04;14.20;99.90
21646;DHT22;10984;45.712;4.800;2023-05-21T05:19:32;14.20;99.90
21646;DHT22;10984;45.712;4.800;2023-05-21T05:21:59;14.30;99.90
21646;DHT22;10984;45.712;4.800;2023-05-21T05:24:24;14.30;99.90
21646;DHT22;10984;45.712;4.800;2023-05-21T05:26:50;14.40;99.90
21646;DHT22;10984;45.712;4.800;2023-05-21T05:29:16;14.40;99.90
21646;DHT22;10984;45.712;4.800;2023-05-21T05:31:41;14.40;99.90
21646;DHT22;10984;45.712;4.800;2023-05-21T05:34:07;14.40;99.90
21646;DHT22;10984;45.712;4.800;2023-05-21T05:36:33;14.50;99.90
21646;DHT22;10984;45.712;4.800;2023-05-21T05:38:58;14.50;99.90
21646;DHT22;10984;45.712;4.800;2023-05-21T05:41:24;14.60;99.90
21646;DHT22;10984;45.712;4.800;2023-05-21T05:43:50;14.50;99.90
21646;DHT22;10984;45.712;4.800;2023-05-21T05:46:16;14.60;99.90
21646;DHT22;10984;45.712;4.800;2023-05-21T05:48:42;14.60;99.90
21646;DHT22;10984;45.712;4.800;2023-05-21T05:51:07;14.70;99.90
21646;DHT22;10984;45.712;4.800;2023-05-21T05:53:33;14.80;99.90
21646;DHT22;10984;45.712;4.800;2023-05-21T05:55:59;14.90;99.90
21646;DHT22;10984;45.712;4.800;2023-05-21T05:58:24;14.90;99.90
21646;DHT22;10984;45.712;4.800;2023-05-21T06:00:50;15.00;99.90
21646;DHT22;10984;45.712;4.800;2023-05-21T06:03:16;15.00;99.90
21646;DHT22;10984;45.712;4.800;2023-05-21T06:05:42;15.10;99.90
21646;DHT22;10984;45.712;4.800;2023-05-21T06:08:08;15.20;99.90
21646;DHT22;10984;45.712;4.800;2023-05-21T06:10:34;15.30;99.90
21646;DHT22;10984;45.712;4.800;2023-05-21T06:12:59;15.30;99.90
21646;DHT22;10984;45.712;4.800;2023-05-21T06:15:25;15.30;99.90
21646;DHT22;10984;45.712;4.800;2023-05-21T06:17:51;15.40;99.90
21646;DHT22;10984;45.712;4.800;2023-05-21T06:20:16;15.40;99.90
21646;DHT22;10984;45.712;4.800;2023-05-21T06:22:42;15.40;99.90
21646;DHT22;10984;45.712;4.800;2023-05-21T06:25:08;15.60;99.90
21646;DHT22;10984;45.712;4.800;2023-05-21T06:27:36;15.70;99.90
21646;DHT22;10984;45.712;4.800;2023-05-21T06:30:02;15.70;99.90
21646;DHT22;10984;45.712;4.800;2023-05-21T06:32:27;15.80;99.90
21646;DHT22;10984;45.712;4.800;2023-05-21T06:34:53;15.90;99.90
21646;DHT22;10984;45.712;4.800;2023-05-21T06:37:19;16.00;99.90
21646;DHT22;10984;45.712;4.800;2023-05-21T06:39:48;16.00;99.90
21646;DHT22;10984;45.712;4.800;2023-05-21T06:42:14;16.10;99.90
21646;DHT22;10984;45.712;4.800;2023-05-21T06:44:40;16.20;99.90
21646;DHT22;10984;45.712;4.800;2023-05-21T06:47:05;16.30;99.90
21646;DHT22;10984;45.712;4.800;2023-05-21T06:49:31;16.40;99.90
21646;DHT22;10984;45.712;4.800;2023-05-21T06:51:57;16.50;99.90
21646;DHT22;10984;45.712;4.800;2023-05-21T06:54:23;16.60;99.90
21646;DHT22;10984;45.712;4.800;2023-05-21T06:56:49;16.70;99.90
21646;DHT22;10984;45.712;4.800;2023-05-21T06:59:14;16.80;99.90
21646;DHT22;10984;45.712;4.800;2023-05-21T07:01:40;16.80;99.90
21646;DHT22;10984;45.712;4.800;2023-05-21T07:04:24;17.00;99.90
21646;DHT22;10984;45.712;4.800;2023-05-21T07:06:50;17.00;99.90
21646;DHT22;10984;45.712;4.800;2023-05-21T07:09:16;17.10;99.90
21646;DHT22;10984;45.712;4.800;2023-05-21T07:11:42;17.30;99.90
21646;DHT22;10984;45.712;4.800;2023-05-21T07:14:09;17.40;99.90
21646;DHT22;10984;45.712;4.800;2023-05-21T07:16:34;17.60;99.90
21646;DHT22;10984;45.712;4.800;2023-05-21T07:19:00;17.70;99.90
21646;DHT22;10984;45.712;4.800;2023-05-21T07:21:26;17.90;99.90
21646;DHT22;10984;45.712;4.800;2023-05-21T07:23:51;18.10;99.90
21646;DHT22;10984;45.712;4.800;2023-05-21T07:26:17;18.30;99.90
21646;DHT22;10984;45.712;4.800;2023-05-21T07:28:42;18.40;99.90
21646;DHT22;10984;45.712;4.800;2023-05-21T07:31:09;18.50;99.90
21646;DHT22;10984;45.712;4.800;2023-05-21T07:33:36;18.50;99.90
21646;DHT22;10984;45.712;4.800;2023-05-21T07:36:02;18.50;99.90
21646;DHT22;10984;45.712;4.800;2023-05-21T07:38:28;18.60;99.90
21646;DHT22;10984;45.712;4.800;2023-05-21T07:40:53;18.40;99.90
21646;DHT22;10984;45.712;4.800;2023-05-21T07:43:19;18.50;99.90
21646;DHT22;10984;45.712;4.800;2023-05-21T07:45:45;18.50;99.90
21646;DHT22;10984;45.712;4.800;2023-05-21T07:48:10;18.60;99.90
21646;DHT22;10984;45.712;4.800;2023-05-21T07:50:36;18.60;99.90
21646;DHT22;10984;45.712;4.800;2023-05-21T07:53:02;18.80;99.90
21646;DHT22;10984;45.712;4.800;2023-05-21T07:55:27;18.80;99.90
21646;DHT22;10984;45.712;4.800;2023-05-21T07:57:53;19.00;99.90
21646;DHT22;10984;45.712;4.800;2023-05-21T08:00:22;19.10;99.90
21646;DHT22;10984;45.712;4.800;2023-05-21T08:02:48;19.30;99.90
21646;DHT22;10984;45.712;4.800;2023-05-21T08:05:14;19.30;99.90
21646;DHT22;10984;45.712;4.800;2023-05-21T08:07:40;19.50;99.90
21646;DHT22;10984;45.712;4.800;2023-05-21T08:10:06;19.60;99.90
21646;DHT22;10984;45.712;4.800;2023-05-21T08:12:33;19.90;99.90
21646;DHT22;10984;45.712;4.800;2023-05-21T08:14:58;20.10;99.90
21646;DHT22;10984;45.712;4.800;2023-05-21T08:17:24;20.20;91.50
21646;DHT22;10984;45.712;4.800;2023-05-21T08:19:50;20.50;68.50
21646;DHT22;10984;45.712;4.800;2023-05-21T08:22:16;20.40;95.30
21646;DHT22;10984;45.712;4.800;2023-05-21T08:24:42;20.50;77.80
21646;DHT22;10984;45.712;4.800;2023-05-21T08:27:07;20.60;75.60
21646;DHT22;10984;45.712;4.800;2023-05-21T08:29:33;20.60;61.10
21646;DHT22;10984;45.712;4.800;2023-05-21T08:31:59;20.60;63.30
21646;DHT22;10984;45.712;4.800;2023-05-21T08:34:25;20.60;94.70
21646;DHT22;10984;45.712;4.800;2023-05-21T08:36:51;20.70;91.90
21646;DHT22;10984;45.712;4.800;2023-05-21T08:39:18;20.70;64.10
21646;DHT22;10984;45.712;4.800;2023-05-21T08:41:44;20.60;39.80
21646;DHT22;10984;45.712;4.800;2023-05-21T08:44:14;20.70;36.30
21646;DHT22;10984;45.712;4.800;2023-05-21T08:46:44;20.70;58.70
21646;DHT22;10984;45.712;4.800;2023-05-21T08:49:15;20.70;75.60
21646;DHT22;10984;45.712;4.800;2023-05-21T08:51:42;20.80;92.20
21646;DHT22;10984;45.712;4.800;2023-05-21T08:54:09;21.10;42.20
21646;DHT22;10984;45.712;4.800;2023-05-21T08:56:37;21.20;15.30
21646;DHT22;10984;45.712;4.800;2023-05-21T08:59:05;21.30;34.00
21646;DHT22;10984;45.712;4.800;2023-05-21T09:01:31;21.50;48.00
21646;DHT22;10984;45.712;4.800;2023-05-21T09:03:58;21.50;49.40
21646;DHT22;10984;45.712;4.800;2023-05-21T09:06:26;21.70;1.00
21646;DHT22;10984;45.712;4.800;2023-05-21T09:11:43;21.80;4.10
21646;DHT22;10984;45.712;4.800;2023-05-21T09:14:10;22.00;4.90
21646;DHT22;10984;45.712;4.800;2023-05-21T09:16:37;22.20;26.80
21646;DHT22;10984;45.712;4.800;2023-05-21T09:19:03;22.10;1.00
21646;DHT22;10984;45.712;4.800;2023-05-21T09:21:29;22.20;1.00
21646;DHT22;10984;45.712;4.800;2023-05-21T09:23:56;22.40;1.00
21646;DHT22;10984;45.712;4.800;2023-05-21T09:26:23;22.40;1.00
21646;DHT22;10984;45.712;4.800;2023-05-21T09:28:55;22.30;1.00
21646;DHT22;10984;45.712;4.800;2023-05-21T09:31:22;22.40;1.00
21646;DHT22;10984;45.712;4.800;2023-05-21T09:33:48;22.40;1.00
21646;DHT22;10984;45.712;4.800;2023-05-21T09:36:17;22.70;1.00
21646;DHT22;10984;45.712;4.800;2023-05-21T09:38:44;22.60;1.00
21646;DHT22;10984;45.712;4.800;2023-05-21T09:41:10;22.60;1.00
21646;DHT22;10984;45.712;4.800;2023-05-21T09:43:36;22.50;1.00
21646;DHT22;10984;45.712;4.800;2023-05-21T09:46:02;22.50;1.00
21646;DHT22;10984;45.712;4.800;2023-05-21T09:48:46;22.40;1.00
21646;DHT22;10984;45.712;4.800;2023-05-21T09:51:30;22.30;1.00
21646;DHT22;10984;45.712;4.800;2023-05-21T09:53:56;22.00;5.40
21646;DHT22;10984;45.712;4.800;2023-05-21T09:56:40;22.10;1.00
21646;DHT22;10984;45.712;4.800;2023-05-21T09:59:06;22.10;1.00
21646;DHT22;10984;45.712;4.800;2023-05-21T10:01:33;22.20;1.00
21646;DHT22;10984;45.712;4.800;2023-05-21T10:04:00;22.20;1.00
21646;DHT22;10984;45.712;4.800;2023-05-21T10:06:28;22.40;1.00
21646;DHT22;10984;45.712;4.800;2023-05-21T10:08:55;22.40;14.20
21646;DHT22;10984;45.712;4.800;2023-05-21T10:11:22;22.50;1.00
21646;DHT22;10984;45.712;4.800;2023-05-21T10:14:03;22.70;1.00
21646;DHT22;10984;45.712;4.800;2023-05-21T10:16:32;22.80;1.00
21646;DHT22;10984;45.712;4.800;2023-05-21T10:18:58;22.90;1.00
21646;DHT22;10984;45.712;4.800;2023-05-21T10:21:25;22.70;1.00
21646;DHT22;10984;45.712;4.800;2023-05-21T10:23:52;22.60;11.90
21646;DHT22;10984;45.712;4.800;2023-05-21T10:26:19;23.00;1.00
21646;DHT22;10984;45.712;4.800;2023-05-21T10:29:03;23.40;1.00
21646;DHT22;10984;45.712;4.800;2023-05-21T10:31:29;23.70;1.00
21646;DHT22;10984;45.712;4.800;2023-05-21T10:33:56;23.80;1.00
21646;DHT22;10984;45.712;4.800;2023-05-21T10:36:29;23.60;1.00
21646;DHT22;10984;45.712;4.800;2023-05-21T10:38:56;23.40;1.00
21646;DHT22;10984;45.712;4.800;2023-05-21T10:41:23;22.90;1.00
21646;DHT22;10984;45.712;4.800;2023-05-21T10:47:20;23.10;1.00
21646;DHT22;10984;45.712;4.800;2023-05-21T11:01:36;23.50;1.00
21646;DHT22;10984;45.712;4.800;2023-05-21T11:04:04;23.20;1.00
21646;DHT22;10984;45.712;4.800;2023-05-21T11:06:48;23.50;1.00
21646;DHT22;10984;45.712;4.800;2023-05-21T11:09:14;24.00;1.00
21646;DHT22;10984;45.712;4.800;2023-05-21T11:11:59;24.10;1.00
21646;DHT22;10984;45.712;4.800;2023-05-21T11:14:26;24.10;1.00
21646;DHT22;10984;45.712;4.800;2023-05-21T11:16:52;24.30;1.00
21646;DHT22;10984;45.712;4.800;2023-05-21T11:19:18;24.60;1.00
21646;DHT22;10984;45.712;4.800;2023-05-21T11:21:49;24.60;1.00
21646;DHT22;10984;45.712;4.800;2023-05-21T11:24:19;24.80;1.00
21646;DHT22;10984;45.712;4.800;2023-05-21T11:27:04;24.90;1.00
21646;DHT22;10984;45.712;4.800;2023-05-21T11:29:41;24.50;1.00
21646;DHT22;10984;45.712;4.800;2023-05-21T11:32:09;24.50;1.00
21646;DHT22;10984;45.712;4.800;2023-05-21T11:34:46;24.10;1.00
21646;DHT22;10984;45.712;4.800;2023-05-21T11:37:30;24.00;1.00
21646;DHT22;10984;45.712;4.800;2023-05-21T11:40:18;23.80;1.00
21646;DHT22;10984;45.712;4.800;2023-05-21T11:45:32;23.50;1.00
21646;DHT22;10984;45.712;4.800;2023-05-21T11:47:59;23.80;1.00
21646;DHT22;10984;45.712;4.800;2023-05-21T11:50:24;24.10;1.00
21646;DHT22;10984;45.712;4.800;2023-05-21T11:52:50;24.20;1.00
21646;DHT22;10984;45.712;4.800;2023-05-21T11:55:21;24.40;1.00
21646;DHT22;10984;45.712;4.800;2023-05-21T11:57:47;24.60;1.00
21646;DHT22;10984;45.712;4.800;2023-05-21T12:00:17;24.30;1.00
21646;DHT22;10984;45.712;4.800;2023-05-21T12:02:52;24.10;1.00
21646;DHT22;10984;45.712;4.800;2023-05-21T12:05:19;24.10;1.00
21646;DHT22;10984;45.712;4.800;2023-05-21T12:07:46;24.30;1.00
21646;DHT22;10984;45.712;4.800;2023-05-21T12:10:30;24.30;1.00
21646;DHT22;10984;45.712;4.800;2023-05-21T12:12:56;24.20;1.00
21646;DHT22;10984;45.712;4.800;2023-05-21T12:15:22;24.50;1.00
21646;DHT22;10984;45.712;4.800;2023-05-21T12:17:49;24.60;1.00
21646;DHT22;10984;45.712;4.800;2023-05-21T12:20:16;25.00;1.00
21646;DHT22;10984;45.712;4.800;2023-05-21T12:22:43;25.40;1.00
21646;DHT22;10984;45.712;4.800;2023-05-21T12:25:09;25.00;1.00
21646;DHT22;10984;45.712;4.800;2023-05-21T12:27:35;25.30;1.00
21646;DHT22;10984;45.712;4.800;2023-05-21T12:30:01;25.30;1.00
21646;DHT22;10984;45.712;4.800;2023-05-21T12:32:28;25.20;1.00
21646;DHT22;10984;45.712;4.800;2023-05-21T12:34:55;25.30;1.00
21646;DHT22;10984;45.712;4.800;2023-05-21T12:37:21;25.20;1.00
21646;DHT22;10984;45.712;4.800;2023-05-21T12:39:49;25.30;1.00
21646;DHT22;10984;45.712;4.800;2023-05-21T12:42:15;25.20;1.00
21646;DHT22;10984;45.712;4.800;2023-05-21T12:47:47;24.20;1.00
21646;DHT22;10984;45.712;4.800;2023-05-21T12:50:19;23.90;1.00
21646;DHT22;10984;45.712;4.800;2023-05-21T12:52:45;23.80;1.00
21646;DHT22;10984;45.712;4.800;2023-05-21T12:55:13;23.60;1.00
21646;DHT22;10984;45.712;4.800;2023-05-21T12:57:39;23.50;1.00
21646;DHT22;10984;45.712;4.800;2023-05-21T13:00:06;23.30;1.00
21646;DHT22;10984;45.712;4.800;2023-05-21T13:02:34;23.20;1.00
21646;DHT22;10984;45.712;4.800;2023-05-21T13:05:04;22.90;1.00
21646;DHT22;10984;45.712;4.800;2023-05-21T13:07:32;22.90;1.00
21646;DHT22;10984;45.712;4.800;2023-05-21T13:09:58;22.80;1.00
21646;DHT22;10984;45.712;4.800;2023-05-21T13:12:25;22.70;1.00
21646;DHT22;10984;45.712;4.800;2023-05-21T13:14:53;22.70;1.00
21646;DHT22;10984;45.712;4.800;2023-05-21T13:17:20;22.70;1.00
21646;DHT22;10984;45.712;4.800;2023-05-21T13:22:51;22.80;1.00
21646;DHT22;10984;45.712;4.800;2023-05-21T13:25:19;22.80;1.00
21646;DHT22;10984;45.712;4.800;2023-05-21T13:27:46;22.80;1.00
21646;DHT22;10984;45.712;4.800;2023-05-21T13:30:12;22.90;1.00
21646;DHT22;10984;45.712;4.800;2023-05-21T13:32:39;23.10;1.00
21646;DHT22;10984;45.712;4.800;2023-05-21T13:35:05;23.10;1.00
21646;DHT22;10984;45.712;4.800;2023-05-21T13:37:32;23.00;1.00
21646;DHT22;10984;45.712;4.800;2023-05-21T13:39:57;23.20;1.00
21646;DHT22;10984;45.712;4.800;2023-05-21T13:42:23;23.20;1.00
21646;DHT22;10984;45.712;4.800;2023-05-21T13:44:49;23.20;1.00
21646;DHT22;10984;45.712;4.800;2023-05-21T13:47:15;23.30;1.00
21646;DHT22;10984;45.712;4.800;2023-05-21T13:49:41;23.30;1.00
21646;DHT22;10984;45.712;4.800;2023-05-21T13:52:07;23.20;1.00
21646;DHT22;10984;45.712;4.800;2023-05-21T13:54:34;23.20;1.00
21646;DHT22;10984;45.712;4.800;2023-05-21T13:57:00;23.20;1.00
21646;DHT22;10984;45.712;4.800;2023-05-21T13:59:26;23.40;1.00
21646;DHT22;10984;45.712;4.800;2023-05-21T14:01:52;23.60;1.00
21646;DHT22;10984;45.712;4.800;2023-05-21T14:04:18;23.70;1.00
21646;DHT22;10984;45.712;4.800;2023-05-21T14:06:45;23.80;1.00
21646;DHT22;10984;45.712;4.800;2023-05-21T14:09:11;23.90;1.00
21646;DHT22;10984;45.712;4.800;2023-05-21T14:11:37;23.90;1.00
21646;DHT22;10984;45.712;4.800;2023-05-21T14:14:03;23.80;1.00
21646;DHT22;10984;45.712;4.800;2023-05-21T14:16:28;23.40;1.00
21646;DHT22;10984;45.712;4.800;2023-05-21T14:18:55;23.40;1.00
21646;DHT22;10984;45.712;4.800;2023-05-21T14:21:21;23.40;1.00
21646;DHT22;10984;45.712;4.800;2023-05-21T14:23:47;23.50;1.00
21646;DHT22;10984;45.712;4.800;2023-05-21T14:26:14;23.30;1.00
21646;DHT22;10984;45.712;4.800;2023-05-21T14:28:40;23.30;1.00
21646;DHT22;10984;45.712;4.800;2023-05-21T14:31:06;23.00;1.00
21646;DHT22;10984;45.712;4.800;2023-05-21T14:33:32;22.90;1.00
21646;DHT22;10984;45.712;4.800;2023-05-21T14:35:59;22.90;1.00
21646;DHT22;10984;45.712;4.800;2023-05-21T14:38:25;22.90;1.00
21646;DHT22;10984;45.712;4.800;2023-05-21T14:40:50;22.80;1.00
21646;DHT22;10984;45.712;4.800;2023-05-21T14:43:16;22.80;1.00
21646;DHT22;10984;45.712;4.800;2023-05-21T14:45:41;22.80;1.00
21646;DHT22;10984;45.712;4.800;2023-05-21T14:48:07;22.80;1.00
21646;DHT22;10984;45.712;4.800;2023-05-21T14:50:37;22.90;1.00
21646;DHT22;10984;45.712;4.800;2023-05-21T14:53:04;22.80;1.00
21646;DHT22;10984;45.712;4.800;2023-05-21T14:55:30;22.80;1.00
21646;DHT22;10984;45.712;4.800;2023-05-21T14:57:57;23.00;1.00
21646;DHT22;10984;45.712;4.800;2023-05-21T15:00:23;22.90;1.00
21646;DHT22;10984;45.712;4.800;2023-05-21T15:02:49;22.90;1.00
21646;DHT22;10984;45.712;4.800;2023-05-21T15:05:14;22.90;1.00
21646;DHT22;10984;45.712;4.800;2023-05-21T15:07:40;22.80;1.00
21646;DHT22;10984;45.712;4.800;2023-05-21T15:10:06;22.80;1.00
21646;DHT22;10984;45.712;4.800;2023-05-21T15:12:32;22.70;1.00
21646;DHT22;10984;45.712;4.800;2023-05-21T15:14:58;22.60;1.00
21646;DHT22;10984;45.712;4.800;2023-05-21T15:17:23;22.70;1.00
21646;DHT22;10984;45.712;4.800;2023-05-21T15:19:49;22.70;1.00
21646;DHT22;10984;45.712;4.800;2023-05-21T15:22:15;22.70;1.00
21646;DHT22;10984;45.712;4.800;2023-05-21T15:24:40;22.80;1.00
21646;DHT22;10984;45.712;4.800;2023-05-21T15:27:07;22.80;1.00
21646;DHT22;10984;45.712;4.800;2023-05-21T15:29:33;22.70;1.00
21646;DHT22;10984;45.712;4.800;2023-05-21T15:31:58;22.80;1.00
21646;DHT22;10984;45.712;4.800;2023-05-21T15:34:25;22.60;1.00
21646;DHT22;10984;45.712;4.800;2023-05-21T15:36:51;22.60;1.00
21646;DHT22;10984;45.712;4.800;2023-05-21T15:39:16;22.70;1.00
21646;DHT22;10984;45.712;4.800;2023-05-21T15:41:43;22.70;1.00
21646;DHT22;10984;45.712;4.800;2023-05-21T15:44:08;22.80;1.00
21646;DHT22;10984;45.712;4.800;2023-05-21T15:46:34;22.80;1.00
21646;DHT22;10984;45.712;4.800;2023-05-21T15:49:00;22.70;1.00
21646;DHT22;10984;45.712;4.800;2023-05-21T15:51:25;22.70;1.00
21646;DHT22;10984;45.712;4.800;2023-05-21T15:53:51;22.80;1.00
21646;DHT22;10984;45.712;4.800;2023-05-21T15:56:17;22.80;1.00
21646;DHT22;10984;45.712;4.800;2023-05-21T15:58:42;22.90;1.00
21646;DHT22;10984;45.712;4.800;2023-05-21T16:01:08;22.90;1.00
21646;DHT22;10984;45.712;4.800;2023-05-21T16:03:33;23.00;1.00
21646;DHT22;10984;45.712;4.800;2023-05-21T16:05:59;23.00;1.00
21646;DHT22;10984;45.712;4.800;2023-05-21T16:08:25;23.00;1.00